Time;durP1;ratioP1;P1;durP2;ratioP2;P2;SDS_P1;SDS_P2;PMS_P1;PMS_P2;Temp;Humidity;BMP_temperature;BMP_pressure;BME280_temperature;BME280_humidity;BME280_pressure;Samples;Min_cycle;Max_cycle;Signal;HPM_P1;HPM_P2
2021/05/21 00:01:07;;;;;;;3.75;0.98;;;10.40;99.90;;;;;;1872903;76;21145;-75
2021/05/21 00:03:33;;;;;;;2.25;1.07;;;10.30;99.90;;;;;;1874934;76;21047;-75
2021/05/21 00:06:00;;;;;;;3.70;1.10;;;10.30;99.90;;;;;;1874965;76;21204;-75
2021/05/21 00:08:26;;;;;;;2.47;0.90;;;10.40;99.90;;;;;;1874930;76;21099;-75
2021/05/21 00:10:52;;;;;;;0.80;0.80;;;10.40;99.90;;;;;;1874957;76;21173;-75
2021/05/21 00:13:18;;;;;;;2.87;1.00;;;10.40;99.90;;;;;;1874750;76;21036;-75
2021/05/21 00:15:44;;;;;;;1.37;1.15;;;10.40;99.90;;;;;;1874955;76;21066;-75
2021/05/21 00:18:10;;;;;;;1.20;1.07;;;10.40;99.90;;;;;;1874718;76;21191;-75
2021/05/21 00:20:36;;;;;;;2.15;1.37;;;10.30;99.90;;;;;;1874903;76;21107;-75
2021/05/21 00:23:02;;;;;;;5.65;1.07;;;10.30;99.90;;;;;;1874794;76;21023;-75
2021/05/21 00:25:28;;;;;;;1.57;1.17;;;10.30;99.90;;;;;;1874914;76;21486;-75
2021/05/21 00:27:55;;;;;;;1.00;0.78;;;10.30;99.90;;;;;;1874926;76;21463;-75
2021/05/21 00:30:21;;;;;;;1.55;1.05;;;10.20;99.90;;;;;;1874807;76;21584;-74
2021/05/21 00:32:47;;;;;;;9.65;1.10;;;10.20;99.90;;;;;;1874801;76;21444;-75
2021/05/21 00:35:13;;;;;;;1.12;1.00;;;10.20;99.90;;;;;;1874997;76;21664;-75
2021/05/21 00:37:39;;;;;;;1.07;0.98;;;10.20;99.90;;;;;;1874809;76;21148;-75
2021/05/21 00:40:05;;;;;;;1.20;1.00;;;10.20;99.90;;;;;;1874805;76;21066;-75
2021/05/21 00:42:31;;;;;;;1.27;1.17;;;10.20;99.90;;;;;;1874773;76;21072;-75
2021/05/21 00:44:58;;;;;;;2.08;1.00;;;10.10;99.90;;;;;;1874766;76;21132;-74
2021/05/21 00:47:24;;;;;;;1.37;1.05;;;10.10;99.90;;;;;;1874921;76;21141;-75
2021/05/21 00:49:50;;;;;;;3.92;1.27;;;10.10;99.90;;;;;;1874816;76;21164;-75
2021/05/21 00:52:16;;;;;;;0.90;0.80;;;10.10;99.90;;;;;;1874786;76;21070;-75
2021/05/21 00:54:42;;;;;;;1.10;1.00;;;10.10;99.90;;;;;;1874810;76;21059;-75
2021/05/21 00:57:08;;;;;;;1.40;1.02;;;10.10;99.90;;;;;;1874792;76;21144;-75
2021/05/21 00:59:34;;;;;;;4.40;0.90;;;10.10;99.90;;;;;;1874820;76;21144;-75
2021/05/21 01:02:00;;;;;;;1.25;1.00;;;10.10;99.90;;;;;;1874790;76;21200;-75
2021/05/21 01:04:27;;;;;;;4.00;0.98;;;10.10;99.90;;;;;;1874731;76;21488;-75
2021/05/21 01:06:53;;;;;;;1.70;1.00;;;10.00;99.90;;;;;;1874804;76;21442;-75
2021/05/21 01:09:19;;;;;;;0.93;0.72;;;10.00;99.90;;;;;;1874786;76;21518;-76
2021/05/21 01:11:45;;;;;;;2.65;1.15;;;10.10;99.90;;;;;;1874785;76;21572;-75
2021/05/21 01:14:11;;;;;;;1.15;1.07;;;10.00;99.90;;;;;;1874817;76;21047;-75
2021/05/21 01:16:37;;;;;;;0.85;0.85;;;10.00;99.90;;;;;;1874813;76;21063;-74
2021/05/21 01:19:05;;;;;;;2.35;0.95;;;10.00;99.90;;;;;;1874889;76;21169;-74
2021/05/21 01:21:31;;;;;;;4.97;1.02;;;10.10;99.90;;;;;;1874750;76;21098;-75
2021/05/21 01:23:57;;;;;;;2.08;1.00;;;10.00;99.90;;;;;;1874718;76;21071;-75
2021/05/21 01:26:23;;;;;;;1.25;1.02;;;10.00;99.90;;;;;;1874801;76;21063;-75
2021/05/21 01:28:49;;;;;;;4.12;1.00;;;9.90;99.90;;;;;;1874889;76;21099;-75
2021/05/21 01:31:15;;;;;;;1.40;0.90;;;10.00;99.90;;;;;;1874689;76;21062;-75
2021/05/21 01:33:42;;;;;;;2.87;0.75;;;10.00;99.90;;;;;;1874899;76;21066;-74
2021/05/21 01:36:08;;;;;;;2.65;0.90;;;10.00;99.90;;;;;;1874669;76;21031;-74
2021/05/21 01:38:34;;;;;;;2.05;0.88;;;10.00;99.90;;;;;;1874667;75;21074;-74
2021/05/21 01:41:00;;;;;;;2.47;1.10;;;10.00;99.90;;;;;;1874810;76;21054;-74
2021/05/21 01:43:26;;;;;;;0.95;0.82;;;9.90;99.90;;;;;;1874659;76;21101;-74
2021/05/21 01:45:52;;;;;;;3.92;1.20;;;9.90;99.90;;;;;;1874751;76;21043;-75
2021/05/21 01:48:18;;;;;;;1.98;0.90;;;9.80;99.90;;;;;;1874766;76;21117;-74
2021/05/21 01:50:44;;;;;;;1.00;0.82;;;9.80;99.90;;;;;;1874843;76;21059;-74
2021/05/21 01:53:10;;;;;;;1.52;1.10;;;9.80;99.90;;;;;;1874748;76;21117;-74
2021/05/21 01:55:37;;;;;;;1.20;0.90;;;9.80;99.90;;;;;;1874758;76;21082;-74
2021/05/21 01:58:03;;;;;;;1.12;1.02;;;9.80;99.90;;;;;;1874774;76;21479;-75
2021/05/21 02:00:29;;;;;;;3.00;1.17;;;9.80;99.90;;;;;;1874867;76;21435;-75
2021/05/21 02:02:55;;;;;;;2.08;1.05;;;9.80;99.90;;;;;;1874664;76;21544;-75
2021/05/21 02:05:21;;;;;;;3.08;1.50;;;9.80;99.90;;;;;;1874786;76;21541;-74
2021/05/21 02:07:47;;;;;;;1.55;1.15;;;9.80;99.90;;;;;;1874659;76;21066;-74
2021/05/21 02:10:13;;;;;;;2.52;1.40;;;9.80;99.90;;;;;;1874837;76;21067;-75
2021/05/21 02:12:39;;;;;;;0.93;0.93;;;9.80;99.90;;;;;;1874630;76;21067;-74
2021/05/21 02:15:06;;;;;;;1.15;1.07;;;9.80;99.90;;;;;;1874884;76;21103;-74
2021/05/21 02:17:32;;;;;;;3.22;1.10;;;9.70;99.90;;;;;;1874974;76;21169;-75
2021/05/21 02:20:00;;;;;;;1.10;1.00;;;9.70;99.90;;;;;;1875253;76;21074;-74
2021/05/21 02:22:26;;;;;;;3.12;1.07;;;9.70;99.90;;;;;;1874989;76;21083;-74
2021/05/21 02:24:52;;;;;;;0.90;0.90;;;9.70;99.90;;;;;;1874924;76;21075;-75
2021/05/21 02:27:18;;;;;;;1.12;1.00;;;9.70;99.90;;;;;;1875161;76;21059;-74
2021/05/21 02:29:44;;;;;;;1.85;1.20;;;9.70;99.90;;;;;;1875005;76;21062;-74
2021/05/21 02:32:10;;;;;;;4.22;1.15;;;9.60;99.90;;;;;;1875139;76;21099;-74
2021/05/21 02:34:36;;;;;;;2.17;1.22;;;9.60;99.90;;;;;;1875090;76;21096;-75
2021/05/21 02:37:02;;;;;;;0.90;0.90;;;9.50;99.90;;;;;;1875124;76;21071;-74
2021/05/21 02:39:28;;;;;;;3.60;0.90;;;9.60;99.90;;;;;;1875019;76;21499;-74
2021/05/21 02:41:55;;;;;;;2.05;1.02;;;9.50;99.90;;;;;;1875009;76;21577;-74
2021/05/21 02:44:21;;;;;;;1.10;1.00;;;9.50;99.90;;;;;;1875001;76;21521;-74
2021/05/21 02:46:47;;;;;;;6.37;0.70;;;9.50;99.90;;;;;;1875024;76;21526;-74
2021/05/21 02:49:19;;;;;;;2.77;1.87;;;9.40;99.90;;;;;;1875000;76;21194;-75
2021/05/21 02:51:41;;;;;;;1.70;0.90;;;9.40;99.90;;;;;;1874031;76;21135;-74
2021/05/21 02:54:07;;;;;;;1.87;0.95;;;9.40;99.90;;;;;;1875125;76;21442;-74
2021/05/21 02:56:33;;;;;;;1.50;1.27;;;9.40;99.90;;;;;;1874931;76;21614;-74
2021/05/21 02:58:59;;;;;;;1.32;1.10;;;9.40;99.90;;;;;;1875013;76;21523;-74
2021/05/21 03:01:25;;;;;;;1.42;1.32;;;9.40;99.90;;;;;;1875223;76;21054;-75
2021/05/21 03:03:51;;;;;;;1.90;1.00;;;9.20;99.90;;;;;;1874951;76;21148;-75
2021/05/21 03:06:17;;;;;;;1.25;1.15;;;9.30;99.90;;;;;;1875097;76;21128;-74
2021/05/21 03:08:44;;;;;;;3.15;1.45;;;9.40;99.90;;;;;;1874990;76;21125;-74
2021/05/21 03:11:10;;;;;;;1.30;1.05;;;9.30;99.90;;;;;;1875005;76;21084;-74
2021/05/21 03:13:36;;;;;;;1.42;1.17;;;9.30;99.90;;;;;;1875006;76;21088;-74
2021/05/21 03:16:02;;;;;;;1.22;1.10;;;9.40;99.90;;;;;;1875086;76;21083;-74
2021/05/21 03:18:28;;;;;;;2.20;1.15;;;9.30;99.90;;;;;;1875092;76;21092;-74
2021/05/21 03:20:54;;;;;;;3.75;2.22;;;9.20;99.90;;;;;;1875063;76;21059;-74
2021/05/21 03:23:20;;;;;;;1.32;1.20;;;9.30;99.90;;;;;;1874893;76;21112;-74
2021/05/21 03:25:46;;;;;;;1.75;1.37;;;9.20;99.90;;;;;;1875155;76;21121;-74
2021/05/21 03:28:13;;;;;;;1.92;1.55;;;9.30;99.90;;;;;;1874783;76;21035;-74
2021/05/21 03:30:39;;;;;;;1.52;1.15;;;9.20;99.90;;;;;;1874807;76;21074;-74
2021/05/21 03:33:05;;;;;;;8.35;1.50;;;9.20;99.90;;;;;;1874812;76;21556;-74
2021/05/21 03:35:31;;;;;;;3.02;1.80;;;9.10;99.90;;;;;;1874883;76;21696;-74
2021/05/21 03:37:57;;;;;;;1.40;1.30;;;9.20;99.90;;;;;;1874700;76;21125;-74
2021/05/21 03:40:24;;;;;;;1.62;1.32;;;9.20;99.90;;;;;;1874754;76;21062;-74
2021/05/21 03:42:50;;;;;;;3.27;1.37;;;9.10;99.90;;;;;;1874803;76;21125;-74
2021/05/21 03:45:16;;;;;;;1.70;1.00;;;9.20;99.90;;;;;;1874740;76;21039;-74
2021/05/21 03:47:42;;;;;;;2.15;1.12;;;9.10;99.90;;;;;;1874717;76;21459;-74
2021/05/21 03:50:09;;;;;;;1.60;1.27;;;9.10;99.90;;;;;;1874808;76;21062;-74
2021/05/21 03:52:35;;;;;;;2.15;1.30;;;9.10;99.90;;;;;;1874818;76;21144;-74
2021/05/21 03:55:03;;;;;;;1.62;1.02;;;9.10;99.90;;;;;;1874795;76;21102;-74
2021/05/21 03:57:29;;;;;;;1.12;1.02;;;9.10;99.90;;;;;;1874538;76;21055;-74
2021/05/21 03:59:55;;;;;;;1.40;1.30;;;9.10;99.90;;;;;;1875015;76;21088;-74
2021/05/21 04:02:21;;;;;;;11.60;2.02;;;9.20;99.90;;;;;;1874846;76;21105;-74
2021/05/21 04:04:47;;;;;;;2.30;1.32;;;9.10;99.90;;;;;;1874907;76;21059;-75
2021/05/21 04:07:13;;;;;;;2.22;1.32;;;9.20;99.90;;;;;;1875014;76;21173;-74
2021/05/21 04:09:39;;;;;;;1.50;1.20;;;9.20;99.90;;;;;;1874942;76;21062;-74
2021/05/21 04:12:05;;;;;;;3.77;1.52;;;9.30;99.90;;;;;;1874947;76;21100;-74
2021/05/21 04:14:31;;;;;;;2.05;1.40;;;9.20;99.90;;;;;;1874829;76;21106;-74
2021/05/21 04:16:58;;;;;;;3.02;1.47;;;9.20;99.90;;;;;;1874786;76;21047;-74
2021/05/21 04:19:24;;;;;;;2.30;1.52;;;9.20;99.90;;;;;;1874778;76;21144;-74
2021/05/21 04:21:50;;;;;;;1.72;1.32;;;9.30;99.90;;;;;;1876909;76;21083;-74
2021/05/21 04:24:16;;;;;;;1.47;1.37;;;9.30;99.90;;;;;;1874908;76;21082;-74
2021/05/21 04:26:42;;;;;;;5.50;2.60;;;9.30;99.90;;;;;;1874811;76;21140;-74
2021/05/21 04:29:08;;;;;;;6.47;3.80;;;9.40;99.90;;;;;;1874779;76;21066;-74
2021/05/21 04:31:35;;;;;;;5.58;4.87;;;9.40;99.90;;;;;;1874936;76;21091;-75
2021/05/21 04:34:01;;;;;;;7.22;5.97;;;9.40;99.90;;;;;;1874791;76;21134;-74
2021/05/21 04:36:27;;;;;;;5.25;4.20;;;9.50;99.90;;;;;;1874719;76;21485;-74
2021/05/21 04:38:53;;;;;;;2.65;2.45;;;9.50;99.90;;;;;;1874769;76;21553;-74
2021/05/21 04:41:19;;;;;;;3.33;2.20;;;9.60;99.90;;;;;;1874793;76;21498;-74
2021/05/21 04:43:46;;;;;;;2.65;2.45;;;9.60;99.90;;;;;;1874750;76;21140;-74
2021/05/21 04:46:12;;;;;;;7.22;4.53;;;9.70;99.90;;;;;;1874745;76;21070;-74
2021/05/21 04:48:38;;;;;;;7.53;5.92;;;9.70;99.90;;;;;;1874883;76;21548;-74
2021/05/21 04:51:04;;;;;;;6.87;5.58;;;9.70;99.90;;;;;;1874726;76;21063;-74
2021/05/21 04:53:31;;;;;;;17.30;7.35;;;9.80;99.90;;;;;;1874740;76;21184;-74
2021/05/21 04:55:57;;;;;;;9.13;6.78;;;9.80;99.90;;;;;;1874687;76;21031;-75
2021/05/21 04:58:23;;;;;;;6.50;4.90;;;9.90;99.90;;;;;;1874722;76;21050;-74
2021/05/21 05:00:49;;;;;;;6.08;4.75;;;10.10;99.90;;;;;;1874737;76;21058;-74
2021/05/21 05:03:18;;;;;;;10.35;5.00;;;10.20;99.90;;;;;;1874757;76;21136;-77
2021/05/21 05:05:44;;;;;;;8.75;5.55;;;10.30;99.90;;;;;;1874771;76;21074;-74
2021/05/21 05:08:11;;;;;;;9.70;4.20;;;10.40;99.90;;;;;;1874754;76;21063;-74
2021/05/21 05:10:37;;;;;;;8.90;5.67;;;10.50;99.90;;;;;;1874678;76;21148;-74
2021/05/21 05:13:04;;;;;;;12.65;8.63;;;10.60;99.90;;;;;;1874877;76;21463;-74
2021/05/21 05:15:33;;;;;;;12.55;7.50;;;10.50;99.90;;;;;;1874712;76;21125;-74
2021/05/21 05:17:58;;;;;;;11.35;8.55;;;10.60;99.90;;;;;;1874308;76;21463;-74
2021/05/21 05:20:24;;;;;;;13.62;8.85;;;10.50;99.90;;;;;;1874767;76;21062;-75
2021/05/21 05:22:50;;;;;;;16.50;7.40;;;10.40;99.90;;;;;;1874749;76;21054;-74
2021/05/21 05:25:16;;;;;;;14.87;8.08;;;10.60;99.90;;;;;;1874679;76;21082;-74
2021/05/21 05:27:42;;;;;;;12.15;6.72;;;10.70;99.90;;;;;;1874865;76;21095;-74
2021/05/21 05:30:08;;;;;;;13.32;5.67;;;10.70;99.90;;;;;;1874821;76;21141;-74
2021/05/21 05:32:34;;;;;;;11.80;6.22;;;10.80;99.90;;;;;;1876497;76;21067;-74
2021/05/21 05:35:01;;;;;;;10.85;5.62;;;11.10;99.90;;;;;;1874829;76;21218;-73
2021/05/21 05:37:27;;;;;;;11.83;4.97;;;11.10;99.90;;;;;;1874790;76;21136;-75
2021/05/21 05:39:53;;;;;;;7.53;4.92;;;11.30;99.90;;;;;;1874779;76;21128;-76
2021/05/21 05:42:19;;;;;;;14.50;4.03;;;11.40;99.90;;;;;;1874603;76;21059;-75
2021/05/21 05:44:45;;;;;;;6.72;3.40;;;11.40;99.90;;;;;;1874765;76;21051;-76
2021/05/21 05:47:11;;;;;;;5.40;3.30;;;11.40;99.90;;;;;;1874571;76;21184;-76
2021/05/21 05:49:37;;;;;;;4.62;2.87;;;11.40;99.90;;;;;;1874792;76;21104;-76
2021/05/21 05:52:03;;;;;;;3.95;2.92;;;11.40;99.90;;;;;;1874652;76;21074;-76
2021/05/21 05:54:30;;;;;;;6.58;3.17;;;11.40;99.90;;;;;;1874802;76;21043;-76
2021/05/21 05:56:56;;;;;;;5.75;2.70;;;11.40;99.90;;;;;;1874800;76;21455;-76
2021/05/21 05:59:24;;;;;;;4.95;2.45;;;11.50;99.90;;;;;;1874528;76;21066;-78
2021/05/21 06:01:50;;;;;;;9.53;2.62;;;11.60;99.90;;;;;;1877412;76;21476;-77
2021/05/21 06:04:18;;;;;;;8.50;2.27;;;11.70;99.90;;;;;;1874438;76;21459;-77
2021/05/21 06:06:45;;;;;;;4.08;2.40;;;11.80;99.90;;;;;;1874720;76;21084;-77
2021/05/21 06:09:11;;;;;;;8.80;2.02;;;12.00;99.90;;;;;;1874792;76;21158;-78
2021/05/21 06:11:39;;;;;;;7.50;2.80;;;12.20;99.90;;;;;;1874625;76;21074;-78
2021/05/21 06:14:05;;;;;;;6.17;2.22;;;12.30;99.90;;;;;;1874607;76;21069;-79
2021/05/21 06:16:32;;;;;;;7.03;1.82;;;12.40;99.90;;;;;;1874649;76;21130;-78
2021/05/21 06:18:58;;;;;;;5.55;1.67;;;12.40;99.90;;;;;;1873311;76;21080;-78
2021/05/21 06:21:24;;;;;;;3.85;1.60;;;12.50;99.90;;;;;;1870999;77;21156;-79
2021/05/21 06:23:51;;;;;;;2.98;1.65;;;12.60;99.90;;;;;;1874122;76;21070;-79
2021/05/21 06:28:51;;;;;;;10.93;2.50;;;12.80;99.90;;;;;;1874788;76;21873;-79
2021/05/21 06:31:17;;;;;;;5.60;2.02;;;13.00;99.90;;;;;;1874604;76;21439;-77
2021/05/21 06:33:43;;;;;;;9.70;1.90;;;13.10;99.90;;;;;;1874520;76;21560;-77
2021/05/21 06:36:09;;;;;;;6.65;1.57;;;13.10;99.90;;;;;;1874577;76;21079;-77
2021/05/21 06:38:35;;;;;;;2.70;1.15;;;13.20;99.90;;;;;;1874547;76;21219;-76
2021/05/21 06:41:01;;;;;;;6.60;1.60;;;13.50;99.90;;;;;;1874648;76;21175;-76
2021/05/21 06:43:27;;;;;;;2.05;1.40;;;13.40;99.90;;;;;;1874592;76;21051;-78
2021/05/21 06:45:54;;;;;;;12.18;1.35;;;13.40;99.90;;;;;;1874620;76;21140;-79
2021/05/21 06:48:21;;;;;;;1.57;1.35;;;13.30;99.90;;;;;;1874665;76;21063;-79
2021/05/21 06:50:47;;;;;;;7.03;1.40;;;13.30;99.90;;;;;;1874575;76;21075;-79
2021/05/21 06:53:13;;;;;;;10.60;1.62;;;13.30;99.90;;;;;;1874547;76;21136;-80
2021/05/21 06:55:40;;;;;;;3.33;1.57;;;13.40;99.90;;;;;;1874585;76;21149;-80
2021/05/21 06:58:06;;;;;;;6.95;1.85;;;13.60;99.90;;;;;;1874922;76;21070;-80
2021/05/21 07:00:34;;;;;;;4.45;1.77;;;13.70;99.90;;;;;;1874591;76;21188;-80
2021/05/21 07:03:00;;;;;;;3.27;1.85;;;13.60;99.90;;;;;;1874528;76;21527;-79
2021/05/21 07:05:26;;;;;;;2.85;1.45;;;13.80;99.90;;;;;;1874640;76;21479;-79
2021/05/21 07:07:52;;;;;;;6.05;1.77;;;14.10;99.90;;;;;;1874729;76;21098;-79
2021/05/21 07:10:18;;;;;;;10.10;1.25;;;14.00;99.90;;;;;;1874814;76;21087;-79
2021/05/21 07:12:45;;;;;;;9.20;1.77;;;13.90;99.90;;;;;;1874739;75;21090;-80
2021/05/21 07:15:11;;;;;;;10.78;1.60;;;14.20;99.90;;;;;;1874823;76;21590;-80
2021/05/21 07:17:50;;;;;;;1.85;1.20;;;14.30;99.90;;;;;;1874587;76;21043;-80
2021/05/21 07:20:05;;;;;;;6.75;1.40;;;14.40;99.90;;;;;;1872352;76;21112;-80
2021/05/21 07:22:31;;;;;;;4.10;1.05;;;14.60;99.90;;;;;;1874434;76;21529;-80
2021/05/21 07:25:11;;;;;;;2.33;1.10;;;14.60;99.90;;;;;;1874871;76;21062;-80
2021/05/21 07:27:25;;;;;;;3.65;1.30;;;14.80;99.90;;;;;;1872203;76;21185;-78
2021/05/21 07:30:00;;;;;;;4.22;1.17;;;14.80;99.90;;;;;;1874671;76;21159;-78
2021/05/21 07:32:19;;;;;;;2.67;1.05;;;14.90;99.90;;;;;;1873149;76;21079;-77
2021/05/21 07:34:45;;;;;;;1.37;0.68;;;14.80;99.90;;;;;;1874907;76;21088;-77
2021/05/21 07:37:11;;;;;;;9.38;1.20;;;14.90;99.90;;;;;;1874886;76;21181;-76
2021/05/21 07:39:38;;;;;;;2.27;0.85;;;15.00;99.90;;;;;;1874777;76;21062;-77
2021/05/21 07:42:04;;;;;;;4.55;0.93;;;15.10;99.90;;;;;;1874586;76;21467;-76
2021/05/21 07:44:30;;;;;;;1.17;0.85;;;15.10;99.90;;;;;;1874453;76;21536;-76
2021/05/21 07:46:59;;;;;;;2.08;0.70;;;15.20;99.90;;;;;;1874767;76;21144;-76
2021/05/21 07:49:25;;;;;;;2.05;0.80;;;15.20;99.90;;;;;;1874817;76;21088;-76
2021/05/21 07:51:51;;;;;;;1.45;1.02;;;15.10;99.90;;;;;;1874594;76;21113;-77
2021/05/21 07:54:17;;;;;;;10.58;0.90;;;15.00;99.90;;;;;;1874573;76;21062;-76
2021/05/21 07:56:43;;;;;;;2.45;1.10;;;15.00;99.90;;;;;;1874723;76;21071;-76
2021/05/21 07:59:11;;;;;;;3.20;1.10;;;15.00;99.90;;;;;;1874722;76;21063;-76
2021/05/21 08:01:37;;;;;;;1.80;0.95;;;14.90;99.90;;;;;;1874616;76;21136;-76
2021/05/21 08:04:03;;;;;;;0.75;0.70;;;15.00;99.90;;;;;;1874669;76;21140;-75
2021/05/21 08:06:30;;;;;;;3.80;1.27;;;15.20;99.90;;;;;;1874537;76;21071;-76
2021/05/21 08:08:56;;;;;;;2.27;0.80;;;15.20;99.90;;;;;;1874567;76;21036;-76
2021/05/21 08:11:22;;;;;;;3.30;0.80;;;15.30;99.90;;;;;;1874755;76;21171;-76
2021/05/21 08:13:48;;;;;;;1.85;0.55;;;15.50;99.90;;;;;;1874442;76;21074;-75
2021/05/21 08:16:14;;;;;;;0.98;0.75;;;15.40;99.90;;;;;;1874814;76;21183;-76
2021/05/21 08:18:40;;;;;;;3.92;0.65;;;15.60;99.90;;;;;;1874851;76;21108;-75
2021/05/21 08:21:06;;;;;;;4.97;0.60;;;15.50;99.90;;;;;;1874728;76;21031;-76
2021/05/21 08:23:34;;;;;;;2.58;0.75;;;15.70;99.90;;;;;;1874728;76;21050;-75
2021/05/21 08:26:00;;;;;;;0.60;0.60;;;15.60;99.90;;;;;;1874617;76;21487;-75
2021/05/21 08:28:26;;;;;;;6.10;0.82;;;15.70;99.90;;;;;;1874721;76;21510;-75
2021/05/21 08:30:52;;;;;;;5.78;0.70;;;15.60;99.90;;;;;;1874687;76;21067;-75
2021/05/21 08:33:18;;;;;;;1.32;0.70;;;15.70;99.90;;;;;;1875948;76;21044;-75
2021/05/21 08:35:45;;;;;;;4.20;0.60;;;15.70;99.90;;;;;;1874590;76;21048;-75
2021/05/21 08:38:11;;;;;;;1.15;0.90;;;15.80;99.90;;;;;;1874877;76;21162;-75
2021/05/21 08:40:38;;;;;;;0.60;0.60;;;15.70;99.90;;;;;;1874569;76;21149;-76
2021/05/21 08:43:04;;;;;;;1.30;0.60;;;15.90;99.90;;;;;;1874795;76;21173;-75
2021/05/21 08:45:30;;;;;;;1.50;0.55;;;16.10;99.90;;;;;;1874538;76;21070;-75
2021/05/21 08:47:57;;;;;;;6.50;0.70;;;16.10;99.90;;;;;;1876313;76;21051;-75
2021/05/21 08:50:23;;;;;;;0.65;0.55;;;16.10;99.90;;;;;;1874675;76;21062;-75
2021/05/21 08:52:49;;;;;;;12.00;0.85;;;16.00;99.90;;;;;;1874734;76;21079;-75
2021/05/21 08:55:15;;;;;;;4.78;1.12;;;16.10;99.90;;;;;;1874659;76;21070;-75
2021/05/21 08:57:41;;;;;;;1.20;0.80;;;15.90;99.90;;;;;;1874639;76;21072;-75
2021/05/21 09:00:09;;;;;;;1.92;0.95;;;15.70;99.90;;;;;;1874579;76;21101;-75
2021/05/21 09:02:37;;;;;;;0.80;0.50;;;15.60;99.90;;;;;;1874593;76;21100;-74
2021/05/21 09:05:03;;;;;;;1.95;0.40;;;15.70;99.90;;;;;;1874750;76;21152;-75
2021/05/21 09:07:30;;;;;;;3.12;0.55;;;15.70;99.90;;;;;;1874545;76;21058;-75
2021/05/21 09:09:57;;;;;;;2.62;0.60;;;15.90;99.90;;;;;;1874664;76;21082;-75
2021/05/21 09:12:23;;;;;;;0.30;0.30;;;16.00;99.90;;;;;;1874688;76;21071;-74
2021/05/21 09:14:49;;;;;;;0.60;0.50;;;16.10;99.90;;;;;;1874776;76;21066;-74
2021/05/21 09:17:16;;;;;;;1.27;0.40;;;16.30;99.90;;;;;;1874679;76;21067;-74
2021/05/21 09:19:42;;;;;;;1.98;0.47;;;16.40;99.90;;;;;;1874857;76;21253;-74
2021/05/21 09:22:08;;;;;;;2.15;0.53;;;16.40;99.90;;;;;;1874680;76;21065;-74
2021/05/21 09:24:35;;;;;;;4.20;0.60;;;16.40;99.90;;;;;;1874533;76;21137;-75
2021/05/21 09:27:01;;;;;;;5.28;0.50;;;16.40;99.90;;;;;;1874761;76;21149;-76
2021/05/21 09:29:27;;;;;;;1.85;0.30;;;16.40;99.90;;;;;;1874664;76;21112;-75
2021/05/21 09:31:53;;;;;;;2.90;0.40;;;16.40;99.90;;;;;;1874689;76;21440;-75
2021/05/21 09:34:19;;;;;;;3.98;0.68;;;16.20;99.90;;;;;;1874633;76;21439;-75
2021/05/21 09:36:45;;;;;;;1.10;0.23;;;16.30;99.90;;;;;;1874728;76;21545;-75
2021/05/21 09:39:12;;;;;;;4.28;0.50;;;16.30;99.90;;;;;;1874563;76;21474;-75
2021/05/21 09:41:38;;;;;;;0.40;0.30;;;16.40;99.90;;;;;;1874590;76;21071;-75
2021/05/21 09:44:04;;;;;;;1.27;0.40;;;16.40;99.90;;;;;;1874720;76;21063;-75
2021/05/21 09:46:31;;;;;;;0.55;0.40;;;16.40;99.90;;;;;;1874619;76;21136;-75
2021/05/21 09:48:57;;;;;;;0.55;0.20;;;16.40;99.90;;;;;;1874739;76;21074;-75
2021/05/21 09:51:25;;;;;;;0.98;0.40;;;16.40;99.90;;;;;;1874556;76;21043;-75
2021/05/21 09:53:51;;;;;;;1.30;0.28;;;16.40;99.90;;;;;;1874677;76;21068;-76
2021/05/21 09:56:17;;;;;;;0.75;0.30;;;16.40;99.90;;;;;;1874815;76;21091;-75
2021/05/21 09:58:43;;;;;;;0.50;0.50;;;16.30;99.90;;;;;;1874778;76;21230;-76
2021/05/21 10:01:09;;;;;;;5.42;0.55;;;16.20;99.90;;;;;;1874935;76;21092;-74
2021/05/21 10:03:35;;;;;;;2.85;0.30;;;16.30;99.90;;;;;;1874665;76;21063;-75
2021/05/21 10:06:01;;;;;;;1.62;0.68;;;16.20;99.90;;;;;;1874673;76;21592;-76
2021/05/21 10:08:28;;;;;;;2.25;0.45;;;16.10;99.90;;;;;;1879994;76;21475;-75
2021/05/21 10:10:54;;;;;;;0.40;0.30;;;16.00;99.90;;;;;;1873806;76;21560;-78
2021/05/21 10:13:20;;;;;;;0.20;0.20;;;16.00;99.90;;;;;;1874563;76;21040;-78
2021/05/21 10:15:46;;;;;;;0.08;0.08;;;16.00;99.90;;;;;;1890601;75;21151;-79
2021/05/21 10:18:13;;;;;;;0.75;0.30;;;15.90;99.90;;;;;;1887087;76;21160;-78
2021/05/21 10:20:39;;;;;;;0.30;0.30;;;16.00;99.90;;;;;;1887269;76;21090;-78
2021/05/21 10:23:06;;;;;;;0.53;0.30;;;16.00;99.90;;;;;;1887179;76;21035;-78
2021/05/21 10:25:33;;;;;;;0.60;0.42;;;16.00;99.90;;;;;;1887149;76;21094;-78
2021/05/21 10:28:00;;;;;;;1.37;0.40;;;16.10;99.90;;;;;;1887327;76;21070;-76
2021/05/21 10:30:26;;;;;;;0.47;0.40;;;16.10;99.90;;;;;;1887204;75;21124;-76
2021/05/21 10:32:52;;;;;;;0.98;0.40;;;16.10;99.90;;;;;;1887131;76;21114;-76
2021/05/21 10:35:18;;;;;;;8.05;0.80;;;16.00;99.90;;;;;;1884958;76;21060;-75
2021/05/21 10:37:45;;;;;;;2.58;0.55;;;16.20;99.90;;;;;;1887310;76;21143;-76
2021/05/21 10:40:13;;;;;;;2.05;0.50;;;16.30;99.90;;;;;;1887296;76;21144;-76
2021/05/21 10:42:39;;;;;;;0.53;0.35;;;16.40;99.90;;;;;;1887201;76;21066;-76
2021/05/21 10:45:05;;;;;;;0.37;0.30;;;16.40;99.90;;;;;;1887347;75;21071;-76
2021/05/21 10:47:31;;;;;;;0.33;0.33;;;16.30;99.90;;;;;;1887262;76;21038;-76
2021/05/21 10:49:58;;;;;;;2.55;0.57;;;16.20;99.90;;;;;;1887182;75;21100;-76
2021/05/21 10:52:24;;;;;;;0.42;0.40;;;16.20;99.90;;;;;;1887317;76;21070;-76
2021/05/21 10:54:50;;;;;;;0.65;0.42;;;16.10;99.90;;;;;;1887308;75;21063;-77
2021/05/21 10:57:16;;;;;;;1.75;0.40;;;16.10;99.90;;;;;;1887198;76;21066;-76
2021/05/21 10:59:42;;;;;;;6.42;0.88;;;16.20;99.90;;;;;;1887295;76;21502;-76
2021/05/21 11:02:09;;;;;;;1.27;0.50;;;16.20;99.90;;;;;;1887211;76;21482;-77
2021/05/21 11:04:35;;;;;;;1.85;0.35;;;16.30;99.90;;;;;;1887176;76;21136;-77
2021/05/21 11:07:03;;;;;;;0.20;0.20;;;16.30;99.90;;;;;;1887289;75;21075;-77
2021/05/21 11:09:29;;;;;;;0.70;0.35;;;16.20;99.90;;;;;;1887068;76;21074;-76
2021/05/21 11:11:55;;;;;;;2.65;0.80;;;16.30;99.90;;;;;;1887269;76;21051;-77
2021/05/21 11:14:21;;;;;;;5.50;1.02;;;16.40;99.90;;;;;;1887304;76;21062;-78
2021/05/21 11:16:48;;;;;;;4.92;0.50;;;16.50;99.90;;;;;;1887247;76;21070;-76
2021/05/21 11:19:14;;;;;;;0.90;0.20;;;16.60;99.90;;;;;;1887323;76;21079;-75
2021/05/21 11:21:40;;;;;;;3.90;0.35;;;16.60;99.90;;;;;;1887316;76;21047;-77
2021/05/21 11:24:06;;;;;;;0.55;0.40;;;16.60;99.90;;;;;;1887273;76;21081;-72
2021/05/21 11:26:32;;;;;;;0.20;0.20;;;16.70;99.90;;;;;;1887313;76;21109;-73
2021/05/21 11:28:58;;;;;;;0.28;0.28;;;16.50;99.90;;;;;;1887211;76;21545;-73
2021/05/21 11:31:24;;;;;;;1.07;0.30;;;16.50;99.90;;;;;;1887300;76;21524;-74
2021/05/21 11:33:51;;;;;;;0.68;0.30;;;16.50;99.90;;;;;;1887403;76;21470;-74
2021/05/21 11:36:17;;;;;;;0.57;0.23;;;16.80;99.90;;;;;;1887195;76;21144;-74
2021/05/21 11:38:44;;;;;;;1.10;0.50;;;16.80;99.90;;;;;;1892156;75;21151;-75
2021/05/21 11:41:11;;;;;;;1.25;0.45;;;16.90;99.90;;;;;;1887288;76;21042;-73
2021/05/21 11:43:37;;;;;;;0.40;0.23;;;17.10;99.90;;;;;;1887370;76;21065;-74
2021/05/21 11:46:04;;;;;;;0.40;0.40;;;16.80;99.90;;;;;;1887207;76;21140;-74
2021/05/21 11:48:30;;;;;;;0.28;0.17;;;17.00;99.90;;;;;;1888232;75;21074;-73
2021/05/21 11:50:56;;;;;;;6.22;0.50;;;16.80;99.90;;;;;;1887450;76;21140;-74
2021/05/21 11:53:23;;;;;;;0.45;0.30;;;16.90;99.90;;;;;;1887122;76;21094;-74
2021/05/21 11:55:50;;;;;;;0.20;0.20;;;16.90;99.90;;;;;;1887366;76;21077;-74
2021/05/21 11:58:16;;;;;;;1.02;0.20;;;16.80;99.90;;;;;;1887233;76;21082;-73
2021/05/21 12:00:42;;;;;;;5.72;0.40;;;16.70;99.90;;;;;;1887238;76;21554;-74
2021/05/21 12:03:08;;;;;;;0.88;0.28;;;16.70;99.90;;;;;;1887141;76;21470;-73
2021/05/21 12:05:34;;;;;;;0.30;0.20;;;16.70;99.90;;;;;;1887378;76;21541;-74
2021/05/21 12:08:01;;;;;;;0.40;0.40;;;16.70;99.90;;;;;;1887329;76;21446;-74
2021/05/21 12:10:27;;;;;;;0.62;0.37;;;16.70;99.90;;;;;;1887128;76;21486;-74
2021/05/21 12:12:53;;;;;;;1.17;0.30;;;16.50;99.90;;;;;;1887347;76;21549;-72
2021/05/21 12:15:20;;;;;;;2.52;0.45;;;16.30;99.90;;;;;;1887184;76;21058;-73
2021/05/21 12:17:46;;;;;;;0.42;0.35;;;16.40;99.90;;;;;;1887350;76;21070;-73
2021/05/21 12:20:12;;;;;;;0.50;0.30;;;16.40;99.90;;;;;;1887242;76;21105;-73
2021/05/21 12:22:38;;;;;;;1.20;0.65;;;16.60;99.90;;;;;;1887231;76;21082;-73
2021/05/21 12:25:08;;;;;;;0.20;0.20;;;16.70;99.90;;;;;;1887171;76;21113;-73
2021/05/21 12:27:32;;;;;;;0.72;0.30;;;16.80;99.90;;;;;;1886680;76;21117;-73
2021/05/21 12:29:58;;;;;;;5.58;0.40;;;16.80;99.90;;;;;;1887348;76;21054;-73
2021/05/21 12:32:24;;;;;;;0.50;0.35;;;16.80;99.90;;;;;;1887323;76;21062;-74
2021/05/21 12:34:51;;;;;;;1.95;0.40;;;16.70;99.90;;;;;;1887224;76;21503;-73
2021/05/21 12:37:17;;;;;;;1.70;0.57;;;16.90;99.90;;;;;;1887133;76;21451;-73
2021/05/21 12:39:46;;;;;;;1.75;0.30;;;16.80;99.90;;;;;;1887147;76;21465;-73
2021/05/21 12:42:12;;;;;;;0.20;0.20;;;16.70;99.90;;;;;;1887149;76;21089;-73
2021/05/21 12:44:43;;;;;;;6.37;0.57;;;16.60;99.90;;;;;;1887179;75;21074;-73